Lilbourn, MO (63862)

10:42 PM CDT on September 21, 2014 (GMT -0500)
SEMO Electric Coop | Change Station
CLOSE
Current Station
Personal Weather Station
Location: Sikeston, MO
Elevation: 338 ft
Nearby Weather Stations

Elev 338 ft 36.85 °N, 89.58 °W | Updated 2 minutes ago

Clear
Clear
66.5 °F
Feels Like 66.5 °F
N
5.0
Wind Variable Wind from North
Gusts 5.0 mph

Today
High -- | Low -- °F
--% Chance of Precip.
Yesterday
High -- | Low -- °F
Precip. -- in
6:45 AM 6:56 PM
Waning Crescent, 4% visible
Pressure 30.09 in
Visibility 10.0 miles
Clouds Clear
Dew Point 52 °F
Humidity 59%
Rainfall 0.00 in
Snow Depth Not available.
UV 0 out of 12
Pollen 7.60 out of 12
Air Quality Not available.
Flu Activity Not available.
METAR KUCY 220335Z AUTO 01006KT 10SM CLR 15/11 A3009 RMK

More Conditions Fewer Conditions

Pressure 30.09 in
Visibility 10.0 miles
Clouds Clear
Dew Point 52 °F
Humidity 59%
Rainfall 0.00 in
Snow Depth Not available.
UV 0 out of 12
Pollen 7.60 out of 12
Air Quality Not available.
Flu Activity Not available.
METAR KUCY 220335Z AUTO 01006KT 10SM CLR 15/11 A3009 RMK

More Conditions Fewer Conditions

10-Day Weather Forecast

Almanac

Astronomy

Sep. 21, 2014 Rise Set
Actual Time 6:45 AM CDT 6:56 PM CDT
Civil Twilight 6:19 AM CDT 7:22 PM CDT
Nautical Twilight 5:49 AM CDT 7:52 PM CDT
Astronomical Twilight 5:18 AM CDT 8:23 PM CDT
Moon 4:22 AM CDT (9/21) 5:30 PM CDT (9/21)
Length of Visible Light 13h 02m
Length of Day
12h 11m
Tomorrow will be 2m 18s shorter.
Waning Crescent, 4% of the Moon is Illuminated
Today
Waning Crescent
Sep 24
New
Oct 1
First Quarter
Oct 8
Full
Oct 15
Last Quarter

Today's Extremes

State Highs State Lows

Community

WunderPhotos

Upload Photos

1,755,382 photos uploaded!

WunderBlogs® & News

Nearby

Snow Depth

Station Depth Elevation
No new snow has been reported.

Earthquake Activity

City Distance Mag. Time & Date
No recent earthquake activity has been reported nearby.
Minimum magnitude displayed is 2.5.

Coastal Water Temperatures

Place Temperature
No Stations Reporting

Nearby Weather Stations